• Join FlightAware (Why Join?)
  • Login
  • US Flag 
01:08AM EDT


 

Airport Tracker/Info


-or-


 

Live Flight TrackerFlight Track Log ✈ N406RC ✈ 26-Apr-2013 ✈ KSPF - KABR

Flight Track Log - Related Links

Times and Time Zones

All times are in EDT time to prevent confusion due to time zone crossing. See the N406RC flight status page for this flight to view local times or setup timezone preferences in your user account.

Time Position Orientation Groundspeed Altitude Reporting Facility
EDT Latitude Longitude Course Direction KTS MPH feet Rate Location/Type
07:14PM 44.5972 -103.4611 69° East 153 176 8,200  Level Denver Center
07:15PM 44.6078 -103.4017 76° East 152 175 8,700 480 Climbing Denver Center
07:16PM 44.6175 -103.3511 75° East 150 173 9,200 540 Climbing Denver Center
07:17PM 44.6303 -103.2911 73° East 152 175 9,800 960 Climbing Denver Center
07:18PM 44.6392 -103.2500 73° East 155 178 11,000 660 Climbing Denver Center
07:19PM 44.4685 -103.7601 69° East  Level FlightAware Approximate
07:19PM 44.6500 -103.1933 75° East 156 180 11,000  Level Denver Center
07:20PM 44.6647 -103.1325 71° East 158 182 11,000  Level Denver Center
07:21PM 44.6789 -103.0725 72° East 167 192 11,000  Level Denver Center
07:22PM 44.6878 -102.9883 82° East 188 216 11,100  Climbing Denver Center
07:23PM 44.7003 -102.9175 76° East 188 216 11,100  Level Denver Center
07:24PM 44.7108 -102.8436 79° East 190 219 11,100  Level Denver Center
07:25PM 44.7250 -102.7719 74° East 191 220 11,100  Level Denver Center
07:26PM 44.7450 -102.6883 71° East 189 217 11,100  Level Denver Center
07:27PM 44.7558 -102.6167 78° East 188 216 11,100  Level Denver Center
07:28PM 44.7681 -102.5428 77° East 191 220 11,100  Level Denver Center
07:29PM 44.7833 -102.4689 74° East 194 223 11,100  Level Denver Center
07:30PM 44.7958 -102.3953 77° East 194 223 11,100  Level Denver Center
07:31PM 44.8078 -102.3367 74° East 195 224 11,100  Level Denver Center
07:32PM 44.8236 -102.2494 76° East 194 223 11,100  Level Denver Center
07:33PM 44.8389 -102.1644 76° East 189 217 11,100  Level Denver Center
07:34PM 44.8519 -102.0931 76° East 188 216 11,100  Level Denver Center
07:35PM 44.8606 -102.0650 67° East 188 216 11,100  Level Minneapolis Center
07:36PM 44.8736 -101.9911 76° East 191 220 11,100  Level Minneapolis Center
07:37PM 44.8861 -101.9178 76° East 192 221 11,100  Level Minneapolis Center
07:38PM 44.8997 -101.8414 76° East 197 227 11,100 -60 Level Minneapolis Center
07:39PM 44.9161 -101.7669 73° East 198 228 11,000 -60 Descending Minneapolis Center
07:40PM 44.9250 -101.6922 80° East 196 226 11,000  Level Minneapolis Center
07:41PM 44.9411 -101.6064 75° East 192 221 11,000  Level Minneapolis Center
07:42PM 44.9569 -101.5319 73° East 194 223 11,000  Level Minneapolis Center
07:43PM 44.9669 -101.4575 79° East 193 222 11,000  Level Minneapolis Center
07:44PM 44.9803 -101.3842 76° East 194 223 11,000  Level Minneapolis Center
07:45PM 44.9939 -101.3125 75° East 192 221 11,000  Level Minneapolis Center
07:46PM 45.0053 -101.2369 78° East 194 223 11,000  Level Minneapolis Center
07:47PM 45.0211 -101.1497 76° East 192 221 11,000  Level Minneapolis Center
07:48PM 45.0342 -101.0772 76° East 191 220 11,000  Level Minneapolis Center
07:49PM 45.0458 -101.0042 77° East 191 220 11,000  Level Minneapolis Center
07:50PM 45.0589 -100.9278 76° East 194 223 11,000  Level Minneapolis Center
07:51PM 45.0719 -100.8531 76° East 196 226 11,000  Level Minneapolis Center
07:52PM 45.0822 -100.7933 76° East 195 224 11,000  Level Minneapolis Center
07:53PM 45.0997 -100.6864 77° East 198 228 11,000  Level Minneapolis Center
07:54PM 45.1128 -100.6106 76° East 198 228 11,000  Level Minneapolis Center
07:55PM 45.1250 -100.5336 77° East 199 229 11,000  Level Minneapolis Center
07:56PM 45.1375 -100.4581 77° East 198 228 11,000  Level Minneapolis Center
07:57PM 45.1497 -100.3825 77° East 198 228 11,000  Level Minneapolis Center
07:59PM 45.1644 -100.2917 77° East 197 227 11,000 -180 Level Minneapolis Center
08:00PM 45.1769 -100.2142 77° East 198 228 10,700 -360 Descending Minneapolis Center
08:01PM 45.1928 -100.1181 77° East 203 234 10,300 -360 Descending Minneapolis Center
08:02PM 45.2083 -100.0225 77° East 205 236 10,000 -300 Descending Minneapolis Center
08:03PM 45.2203 -99.9425 78° East 205 236 9,800 -300 Descending Minneapolis Center
08:04PM 45.2331 -99.8639 77° East 204 235 9,500 -300 Descending Minneapolis Center
08:05PM 45.2450 -99.7867 78° East 202 232 9,200 -300 Descending Minneapolis Center
08:06PM 45.2572 -99.7086 77° East 201 231 9,000 -300 Descending Minneapolis Center
08:07PM 45.2692 -99.6306 78° East 201 231 8,600 -420 Descending Minneapolis Center
08:08PM 45.2814 -99.5522 77° East 202 232 8,200 -360 Descending Minneapolis Center
08:09PM 45.2961 -99.4589 77° East 202 232 7,800 -360 Descending Minneapolis Center
08:10PM 45.3106 -99.3658 78° East 202 232 7,400 -300 Descending Minneapolis Center
08:11PM 45.3211 -99.2911 79° East 199 229 7,200 -240 Descending Minneapolis Center
08:12PM 45.3328 -99.2178 77° East 194 223 7,000 -240 Descending Minneapolis Center
08:13PM 45.3439 -99.1461 78° East 190 219 6,800 -240 Descending Minneapolis Center
08:14PM 45.3544 -99.0742 78° East 188 216 6,600 -180 Descending Minneapolis Center
08:15PM 45.3667 -98.9911 78° East 183 211 6,500 -180 Descending Minneapolis Center
08:16PM 45.3764 -98.9228 79° East 180 207 6,300 -240 Descending Minneapolis Center
08:18PM 45.3787 -98.8769 86° East  Level FlightAware Approximate
08:25PM 45.4136 -98.5629 79° East  Level FlightAware Approximate
08:26PM 45.4196 -98.5184 79° East  Level FlightAware Approximate
08:27PM 45.4256 -98.4739 79° East  Level FlightAware Approximate
08:28PM 45.4316 -98.4295 79° East  Level FlightAware Approximate
08:29PM 45.4333 -98.4167 79° East  Level FlightAware Approximate